Time;durP1;ratioP1;P1;durP2;ratioP2;P2;SDS_P1;SDS_P2;PMS_P1;PMS_P2;Temp;Humidity;BMP_temperature;BMP_pressure;BME280_temperature;BME280_humidity;BME280_pressure;Samples;Min_cycle;Max_cycle;Signal;HPM_P1;HPM_P2
2022/04/06 00:01:41;;;;;;;30.17;10.23;;;8.00;99.90;;;;;;5086797;28;20043;-66
2022/04/06 00:04:07;;;;;;;37.10;10.63;;;8.00;99.90;;;;;;5076518;28;20041;-67
2022/04/06 00:06:35;;;;;;;30.35;10.75;;;7.90;99.90;;;;;;5087459;28;20040;-67
2022/04/06 00:09:01;;;;;;;29.45;10.65;;;8.00;99.90;;;;;;5083954;28;20500;-67
2022/04/06 00:11:26;;;;;;;31.27;11.60;;;7.90;99.90;;;;;;5079671;28;20040;-67
2022/04/06 00:13:55;;;;;;;36.83;12.10;;;8.50;99.90;;;;;;5080670;28;20041;-67
2022/04/06 00:16:21;;;;;;;42.13;12.90;;;7.90;99.90;;;;;;5082963;28;20141;-67
2022/04/06 00:18:46;;;;;;;28.88;11.30;;;7.90;99.90;;;;;;5087121;28;20073;-67
2022/04/06 00:21:15;;;;;;;32.40;12.30;;;7.90;99.90;;;;;;5090915;28;20485;-67
2022/04/06 00:23:41;;;;;;;35.97;13.40;;;8.00;99.90;;;;;;5088000;28;20055;-67
2022/04/06 00:26:07;;;;;;;37.97;12.30;;;7.90;99.90;;;;;;5086180;28;20025;-67
2022/04/06 00:28:32;;;;;;;44.80;13.80;;;7.90;99.90;;;;;;5091019;28;20413;-68
2022/04/06 00:30:58;;;;;;;42.33;13.05;;;7.90;99.90;;;;;;5076155;28;20111;-69
2022/04/06 00:33:24;;;;;;;39.28;14.82;;;7.90;99.90;;;;;;5073950;28;20037;-68
2022/04/06 00:35:51;;;;;;;36.10;13.73;;;8.00;99.90;;;;;;5090914;28;20052;-67
2022/04/06 00:38:17;;;;;;;47.00;14.75;;;7.90;99.90;;;;;;5087505;28;20527;-67
2022/04/06 00:40:43;;;;;;;38.00;15.63;;;8.00;99.90;;;;;;5074800;28;20094;-67
2022/04/06 00:43:11;;;;;;;47.72;15.82;;;8.00;99.90;;;;;;5090885;28;20044;-67
2022/04/06 00:45:38;;;;;;;40.63;16.58;;;8.20;99.90;;;;;;5087713;28;20044;-67
2022/04/06 00:48:04;;;;;;;56.22;17.67;;;8.00;99.90;;;;;;5079489;28;20044;-68
2022/04/06 00:50:30;;;;;;;53.88;18.35;;;8.00;99.90;;;;;;5072999;28;20047;-67
2022/04/06 00:52:57;;;;;;;44.63;17.40;;;8.00;99.90;;;;;;5079451;28;20078;-67
2022/04/06 00:55:37;;;;;;;53.78;18.48;;;8.00;99.90;;;;;;5075163;28;20521;-68
2022/04/06 00:58:04;;;;;;;58.50;19.05;;;9.00;99.90;;;;;;5071878;28;20044;-68
2022/04/06 01:00:30;;;;;;;55.83;17.55;;;8.00;99.90;;;;;;5073505;28;20406;-68
2022/04/06 01:02:56;;;;;;;55.33;18.35;;;8.00;99.90;;;;;;5091113;28;20044;-68
2022/04/06 01:05:23;;;;;;;45.22;18.13;;;8.00;99.90;;;;;;5077526;28;20047;-67
2022/04/06 01:07:51;;;;;;;45.40;17.10;;;8.00;99.90;;;;;;5073625;28;20063;-67
2022/04/06 01:10:17;;;;;;;42.80;18.00;;;8.00;99.90;;;;;;5073578;28;20044;-68
2022/04/06 01:12:47;;;;;;;49.47;17.42;;;8.00;99.90;;;;;;5083068;28;20414;-67
2022/04/06 01:15:14;;;;;;;50.67;19.25;;;8.00;99.90;;;;;;5075864;28;20040;-66
2022/04/06 01:17:40;;;;;;;46.47;15.18;;;8.10;99.90;;;;;;5086044;28;20054;-67
2022/04/06 01:20:07;;;;;;;45.35;17.42;;;8.00;99.90;;;;;;5075574;28;20173;-68
2022/04/06 01:22:34;;;;;;;49.33;16.67;;;8.00;99.90;;;;;;5073599;28;20457;-67
2022/04/06 01:25:00;;;;;;;49.17;16.55;;;8.00;99.90;;;;;;5081765;28;20154;-68
2022/04/06 01:27:27;;;;;;;43.95;15.73;;;8.00;99.90;;;;;;5078572;28;20044;-67
2022/04/06 01:29:54;;;;;;;41.08;14.23;;;8.00;99.90;;;;;;5085728;28;20044;-68
2022/04/06 01:32:23;;;;;;;39.55;14.90;;;8.00;99.90;;;;;;5078723;28;20048;-67
2022/04/06 01:34:50;;;;;;;35.28;14.55;;;8.00;99.90;;;;;;5081196;28;20040;-66
2022/04/06 01:37:17;;;;;;;45.17;16.30;;;8.00;99.90;;;;;;5080477;28;20134;-67
2022/04/06 01:39:45;;;;;;;42.63;16.77;;;8.00;99.90;;;;;;5090215;28;20047;-68
2022/04/06 01:42:15;;;;;;;36.45;14.70;;;8.00;99.90;;;;;;5082483;28;20036;-67
2022/04/06 01:44:41;;;;;;;36.92;14.52;;;8.00;99.90;;;;;;5081434;28;20044;-68
2022/04/06 01:47:08;;;;;;;39.15;13.50;;;8.00;99.90;;;;;;5089038;28;20115;-67
2022/04/06 01:52:20;;;;;;;39.22;14.35;;;8.20;99.90;;;;;;5074980;28;20105;-68
2022/04/06 01:54:48;;;;;;;31.90;13.00;;;8.00;99.90;;;;;;5079546;28;20474;-66
2022/04/06 01:57:15;;;;;;;34.97;12.50;;;8.00;99.90;;;;;;5069855;28;20040;-67
2022/04/06 01:59:42;;;;;;;32.72;12.43;;;8.00;99.90;;;;;;5083718;28;20052;-67
2022/04/06 02:02:09;;;;;;;35.97;12.43;;;8.20;99.90;;;;;;5073489;28;20047;-68
2022/04/06 02:04:36;;;;;;;32.65;12.45;;;8.00;99.90;;;;;;5078092;28;20075;-67
2022/04/06 02:07:01;;;;;;;31.48;12.20;;;8.10;99.90;;;;;;5078632;28;20409;-68
2022/04/06 02:09:27;;;;;;;40.25;14.15;;;8.00;99.90;;;;;;5058775;28;20048;-67
2022/04/06 02:11:54;;;;;;;35.97;13.40;;;8.00;99.90;;;;;;5081667;28;20447;-67
2022/04/06 02:14:23;;;;;;;31.90;11.50;;;8.10;99.90;;;;;;5081667;28;20106;-68
2022/04/06 02:17:15;;;;;;;40.65;13.00;;;8.10;99.90;;;;;;5055078;28;20045;-67
2022/04/06 02:19:44;;;;;;;45.03;11.45;;;8.00;99.90;;;;;;5077945;28;20044;-67
2022/04/06 02:22:09;;;;;;;28.75;11.85;;;8.00;99.90;;;;;;5079591;28;20081;-67
2022/04/06 02:24:35;;;;;;;33.28;11.40;;;8.00;99.90;;;;;;5086205;28;20043;-68
2022/04/06 02:27:01;;;;;;;32.25;9.27;;;8.00;99.90;;;;;;5087203;28;20028;-68
2022/04/06 02:29:27;;;;;;;31.38;9.95;;;8.00;99.90;;;;;;5089954;28;20052;-67
2022/04/06 02:31:53;;;;;;;29.58;9.80;;;8.00;99.90;;;;;;5084040;28;20529;-67
2022/04/06 02:34:19;;;;;;;34.13;11.07;;;8.10;99.90;;;;;;5076393;28;20039;-69
2022/04/06 02:36:44;;;;;;;38.25;10.95;;;8.00;99.90;;;;;;5085663;28;20079;-68
2022/04/06 02:39:10;;;;;;;30.02;9.90;;;8.00;99.90;;;;;;5079568;28;20040;-68
2022/04/06 02:41:35;;;;;;;31.63;10.52;;;8.00;99.90;;;;;;5090704;28;20036;-67
2022/04/06 02:44:01;;;;;;;26.20;8.90;;;8.10;99.90;;;;;;5080869;28;20048;-68
2022/04/06 02:46:27;;;;;;;28.13;10.13;;;8.00;99.90;;;;;;5078729;28;20032;-69
2022/04/06 02:48:52;;;;;;;26.58;9.95;;;8.30;99.90;;;;;;5093630;28;20036;-68
2022/04/06 02:51:18;;;;;;;21.15;8.32;;;8.00;99.90;;;;;;5095039;28;20093;-66
2022/04/06 02:53:45;;;;;;;21.02;8.30;;;8.00;99.90;;;;;;5077645;28;20071;-68
2022/04/06 02:56:10;;;;;;;24.10;7.45;;;8.00;99.90;;;;;;5075493;28;20058;-67
2022/04/06 02:58:36;;;;;;;20.67;8.02;;;8.00;99.90;;;;;;5075888;28;20037;-68
2022/04/06 03:01:02;;;;;;;16.60;6.32;;;8.00;99.90;;;;;;5084403;28;20032;-68
2022/04/06 03:03:27;;;;;;;23.83;6.75;;;8.10;99.90;;;;;;5081587;28;20040;-68
2022/04/06 03:05:53;;;;;;;18.95;6.90;;;8.00;99.90;;;;;;5084878;28;20068;-69
2022/04/06 03:08:19;;;;;;;23.75;7.13;;;8.10;99.90;;;;;;5085992;28;20556;-67
2022/04/06 03:10:44;;;;;;;18.25;6.57;;;8.00;99.90;;;;;;5074357;28;20052;-68
2022/04/06 03:13:10;;;;;;;22.33;6.50;;;8.00;99.90;;;;;;5079385;28;20461;-68
2022/04/06 03:15:36;;;;;;;21.73;5.97;;;8.10;99.90;;;;;;5081175;28;20093;-68
2022/04/06 03:18:03;;;;;;;17.45;5.90;;;8.10;99.90;;;;;;5074808;28;20032;-68
2022/04/06 03:20:29;;;;;;;16.55;5.55;;;8.00;99.90;;;;;;5079776;28;20071;-67
2022/04/06 03:22:55;;;;;;;20.63;5.90;;;8.10;99.90;;;;;;5085771;28;20489;-68
2022/04/06 03:25:20;;;;;;;18.42;5.60;;;8.00;99.90;;;;;;5082561;28;20057;-69
2022/04/06 03:27:46;;;;;;;16.75;5.53;;;8.00;99.90;;;;;;5088055;28;20067;-68
2022/04/06 03:30:12;;;;;;;17.50;5.70;;;8.00;99.90;;;;;;5071618;28;20486;-68
2022/04/06 03:32:38;;;;;;;18.40;4.68;;;8.30;99.90;;;;;;5085727;28;20043;-68
2022/04/06 03:35:07;;;;;;;14.88;4.70;;;8.00;99.90;;;;;;5088950;28;20135;-68
2022/04/06 03:37:34;;;;;;;16.95;5.28;;;7.90;99.90;;;;;;5085889;28;20041;-67
2022/04/06 03:39:59;;;;;;;14.45;4.43;;;8.10;99.90;;;;;;5084046;28;20127;-67
2022/04/06 03:42:25;;;;;;;19.30;4.45;;;7.90;99.90;;;;;;5078730;28;20175;-67
2022/04/06 03:44:50;;;;;;;13.88;4.63;;;8.00;99.90;;;;;;5082898;28;20040;-67
2022/04/06 03:47:16;;;;;;;17.90;4.70;;;8.00;99.90;;;;;;5076304;28;20044;-67
2022/04/06 03:49:42;;;;;;;15.45;4.72;;;8.20;99.90;;;;;;5078062;28;20048;-68
2022/04/06 03:52:08;;;;;;;11.00;5.05;;;7.90;99.90;;;;;;5087345;28;20067;-68
2022/04/06 03:54:34;;;;;;;18.55;5.63;;;7.90;99.90;;;;;;5081685;28;20053;-68
2022/04/06 03:57:00;;;;;;;19.00;5.18;;;7.90;99.90;;;;;;5076126;28;20119;-68
2022/04/06 03:59:26;;;;;;;18.20;5.75;;;7.90;99.90;;;;;;5077353;28;20174;-67
2022/04/06 04:01:52;;;;;;;18.90;5.68;;;7.90;99.90;;;;;;5086941;28;20123;-69
2022/04/06 04:04:17;;;;;;;18.73;6.75;;;7.90;99.90;;;;;;5092678;28;20040;-68
2022/04/06 04:06:44;;;;;;;18.45;6.30;;;7.90;99.90;;;;;;5081765;28;20576;-68
2022/04/06 04:09:10;;;;;;;25.45;6.43;;;7.90;99.90;;;;;;5074258;28;20106;-69
2022/04/06 04:11:35;;;;;;;19.15;6.72;;;7.90;99.90;;;;;;5086511;28;20486;-68
2022/04/06 04:14:01;;;;;;;23.45;7.55;;;7.90;99.90;;;;;;5076746;28;20028;-68
2022/04/06 04:16:27;;;;;;;22.00;6.93;;;7.80;99.90;;;;;;5090413;28;20047;-69
2022/04/06 04:18:52;;;;;;;26.23;7.60;;;7.90;99.90;;;;;;5081852;28;20058;-69
2022/04/06 04:21:33;;;;;;;28.45;8.15;;;7.80;99.90;;;;;;5081241;28;20124;-68
2022/04/06 04:24:04;;;;;;;24.92;8.18;;;7.80;99.90;;;;;;5081584;28;20404;-68
2022/04/06 04:26:29;;;;;;;32.03;8.35;;;7.80;99.90;;;;;;5087102;28;20043;-68
2022/04/06 04:28:56;;;;;;;23.80;8.60;;;7.80;99.90;;;;;;5085040;28;20035;-69
2022/04/06 04:31:24;;;;;;;39.05;9.65;;;7.80;99.90;;;;;;5076032;28;20063;-67
2022/04/06 04:33:49;;;;;;;34.10;9.50;;;7.80;99.90;;;;;;5084695;28;20055;-69
2022/04/06 04:36:16;;;;;;;29.50;9.65;;;7.80;99.90;;;;;;5079812;28;20040;-69
2022/04/06 04:38:43;;;;;;;39.42;10.35;;;7.90;99.90;;;;;;5079861;28;20079;-69
2022/04/06 04:41:08;;;;;;;26.33;9.15;;;7.80;99.90;;;;;;5077368;28;20044;-68
2022/04/06 04:43:35;;;;;;;31.35;10.73;;;7.90;99.90;;;;;;5081282;28;20043;-70
2022/04/06 04:46:02;;;;;;;31.52;10.75;;;7.80;99.90;;;;;;5081698;28;20036;-69
2022/04/06 04:48:27;;;;;;;34.33;10.95;;;7.80;99.90;;;;;;5081159;28;20079;-69
2022/04/06 04:50:53;;;;;;;32.03;10.18;;;7.90;99.90;;;;;;5076554;28;20075;-68
2022/04/06 04:53:19;;;;;;;33.80;11.68;;;7.90;99.90;;;;;;5086291;28;20036;-68
2022/04/06 04:55:48;;;;;;;32.38;11.32;;;7.90;99.90;;;;;;5086501;28;20374;-68
2022/04/06 04:58:13;;;;;;;30.27;10.50;;;7.90;99.90;;;;;;5076933;28;20069;-67
2022/04/06 05:00:39;;;;;;;28.92;10.05;;;7.90;99.90;;;;;;5079694;28;20068;-70
2022/04/06 05:03:05;;;;;;;28.40;10.00;;;8.00;99.90;;;;;;5084094;28;20040;-69
2022/04/06 05:05:31;;;;;;;42.78;11.02;;;8.00;99.90;;;;;;5073460;28;20479;-68
2022/04/06 05:07:58;;;;;;;31.88;10.63;;;8.00;99.90;;;;;;5088650;28;20123;-67
2022/04/06 05:10:27;;;;;;;24.45;9.55;;;8.00;99.90;;;;;;5079631;28;20059;-68
2022/04/06 05:12:54;;;;;;;35.55;10.50;;;8.00;99.90;;;;;;5080662;28;20090;-67
2022/04/06 05:15:20;;;;;;;28.92;10.27;;;8.00;99.90;;;;;;5077386;28;20044;-69
2022/04/06 05:17:46;;;;;;;37.97;10.90;;;8.00;99.90;;;;;;5072700;28;20066;-68
2022/04/06 05:20:13;;;;;;;33.25;9.63;;;7.90;99.90;;;;;;5075338;28;20512;-68
2022/04/06 05:22:39;;;;;;;31.50;9.68;;;8.00;99.90;;;;;;5081884;28;20044;-68
2022/04/06 05:25:07;;;;;;;38.97;10.05;;;7.90;99.90;;;;;;5081579;28;20131;-68
2022/04/06 05:27:47;;;;;;;21.67;8.60;;;7.90;99.90;;;;;;5081572;28;20047;-68
2022/04/06 05:30:14;;;;;;;26.05;9.00;;;8.10;99.90;;;;;;5084704;28;20043;-68
2022/04/06 05:32:40;;;;;;;35.17;9.52;;;7.90;99.90;;;;;;5073716;28;20040;-69
2022/04/06 05:35:08;;;;;;;23.95;9.55;;;7.90;99.90;;;;;;5078146;28;20488;-69
2022/04/06 05:37:34;;;;;;;27.27;8.65;;;7.90;99.90;;;;;;5084853;28;20047;-67
2022/04/06 05:40:00;;;;;;;30.88;9.68;;;7.90;99.90;;;;;;5072195;28;20108;-68
2022/04/06 05:42:26;;;;;;;35.63;9.85;;;8.10;99.90;;;;;;5083266;28;20151;-68
2022/04/06 05:44:52;;;;;;;40.20;10.02;;;7.90;99.90;;;;;;5088258;28;20050;-69
2022/04/06 05:47:17;;;;;;;26.92;9.30;;;7.90;99.90;;;;;;5087413;28;20040;-67
2022/04/06 05:49:43;;;;;;;33.97;10.65;;;7.90;99.90;;;;;;5084561;28;20047;-67
2022/04/06 05:52:10;;;;;;;37.28;10.43;;;7.90;99.90;;;;;;5086582;28;20526;-69
2022/04/06 05:54:36;;;;;;;32.58;9.52;;;7.90;99.90;;;;;;5072115;28;20041;-68
2022/04/06 05:57:02;;;;;;;35.78;9.40;;;7.80;99.90;;;;;;5074277;28;20693;-67
2022/04/06 05:59:31;;;;;;;31.05;9.93;;;7.90;99.90;;;;;;5080703;28;20052;-67
2022/04/06 06:01:56;;;;;;;30.20;10.43;;;7.90;99.90;;;;;;5077885;28;20043;-68
2022/04/06 06:04:22;;;;;;;24.50;9.63;;;7.90;99.90;;;;;;5080658;28;20050;-67
2022/04/06 06:06:48;;;;;;;32.72;10.18;;;7.90;99.90;;;;;;5080461;28;20435;-68
2022/04/06 06:09:14;;;;;;;36.97;11.18;;;7.90;99.90;;;;;;5087493;28;20071;-67
2022/04/06 06:11:41;;;;;;;28.55;10.73;;;7.80;99.90;;;;;;5075448;28;20057;-68
2022/04/06 06:14:10;;;;;;;38.42;10.93;;;7.90;99.90;;;;;;5089719;28;20105;-69
2022/04/06 06:16:36;;;;;;;25.63;10.43;;;7.90;99.90;;;;;;5079493;28;20478;-67
2022/04/06 06:19:01;;;;;;;23.45;9.90;;;7.80;99.90;;;;;;5088368;28;20047;-69
2022/04/06 06:21:31;;;;;;;28.80;9.57;;;7.80;99.90;;;;;;5079558;28;20079;-68
2022/04/06 06:24:04;;;;;;;28.73;10.35;;;7.90;99.90;;;;;;5077384;28;20040;-68
2022/04/06 06:26:30;;;;;;;25.83;9.43;;;7.80;99.90;;;;;;5089335;28;20433;-67
2022/04/06 06:28:56;;;;;;;23.50;9.13;;;7.90;99.90;;;;;;5071524;28;20110;-69
2022/04/06 06:31:21;;;;;;;28.05;9.38;;;7.80;99.90;;;;;;5077713;28;20075;-67
2022/04/06 06:33:47;;;;;;;25.48;8.35;;;7.90;99.90;;;;;;5091357;28;20429;-69
2022/04/06 06:36:13;;;;;;;25.98;8.70;;;7.90;99.90;;;;;;5091040;28;20518;-68
2022/04/06 06:38:39;;;;;;;23.05;8.25;;;7.90;99.90;;;;;;5085936;28;20032;-70
2022/04/06 06:41:07;;;;;;;25.90;9.13;;;7.90;99.90;;;;;;5076600;28;20575;-71
2022/04/06 06:43:42;;;;;;;17.02;8.02;;;7.90;99.90;;;;;;5068709;28;20036;-69
2022/04/06 06:46:12;;;;;;;27.05;8.45;;;7.90;99.90;;;;;;5077607;28;20041;-68
2022/04/06 06:48:41;;;;;;;19.88;8.60;;;7.90;99.90;;;;;;5081844;28;20515;-68
2022/04/06 06:51:06;;;;;;;21.58;8.23;;;7.90;99.90;;;;;;5089322;28;20179;-68
2022/04/06 06:53:32;;;;;;;18.70;8.70;;;7.90;99.90;;;;;;5082911;28;20052;-68
2022/04/06 06:55:58;;;;;;;19.70;8.05;;;7.80;99.90;;;;;;5078919;28;20045;-68
2022/04/06 06:58:23;;;;;;;23.02;7.97;;;7.90;99.90;;;;;;5080422;28;20032;-69
2022/04/06 07:00:49;;;;;;;24.23;9.68;;;9.20;99.90;;;;;;5081035;28;20059;-68
2022/04/06 07:03:14;;;;;;;21.92;9.43;;;8.40;99.90;;;;;;5088716;28;20043;-67
2022/04/06 07:05:40;;;;;;;27.48;8.30;;;7.90;99.90;;;;;;5084095;28;20421;-68
2022/04/06 07:08:06;;;;;;;23.30;7.55;;;7.90;99.90;;;;;;5083663;28;20123;-68
2022/04/06 07:10:32;;;;;;;20.88;7.28;;;7.90;99.90;;;;;;5076429;28;20102;-69
2022/04/06 07:12:58;;;;;;;21.98;7.25;;;7.90;99.90;;;;;;5080565;28;20048;-68
2022/04/06 07:15:25;;;;;;;20.63;4.90;;;7.90;99.90;;;;;;5088114;28;20036;-69
2022/04/06 07:17:55;;;;;;;19.15;5.63;;;7.90;99.90;;;;;;5069889;28;20414;-69
2022/04/06 07:20:27;;;;;;;20.52;5.28;;;8.00;99.90;;;;;;5080676;28;20100;-69
2022/04/06 07:22:52;;;;;;;13.23;5.03;;;7.90;99.90;;;;;;5071060;28;20045;-67
2022/04/06 07:25:19;;;;;;;17.52;5.50;;;7.90;99.90;;;;;;5072560;28;20057;-67
2022/04/06 07:27:45;;;;;;;20.23;5.00;;;7.90;99.90;;;;;;5082339;28;20457;-67
2022/04/06 07:30:12;;;;;;;19.02;5.65;;;7.90;99.90;;;;;;5072860;28;20051;-67
2022/04/06 07:32:38;;;;;;;13.70;5.43;;;7.90;99.90;;;;;;5073737;28;20048;-68
2022/04/06 07:35:06;;;;;;;20.65;6.07;;;7.90;99.90;;;;;;5077589;28;20476;-68
2022/04/06 07:37:41;;;;;;;18.45;5.57;;;7.90;99.90;;;;;;5074490;28;20508;-67
2022/04/06 07:40:08;;;;;;;19.40;5.90;;;7.90;99.90;;;;;;5074565;28;20049;-66
2022/04/06 07:42:35;;;;;;;12.48;4.85;;;7.90;99.90;;;;;;5091107;28;20044;-69
2022/04/06 07:45:06;;;;;;;19.75;5.85;;;7.90;99.90;;;;;;5087566;28;20044;-68
2022/04/06 07:47:33;;;;;;;13.80;5.07;;;7.90;99.90;;;;;;5087078;28;20047;-69
2022/04/06 07:50:00;;;;;;;17.15;5.55;;;8.00;99.90;;;;;;5070989;28;20401;-67
2022/04/06 07:52:29;;;;;;;17.00;5.60;;;8.00;99.90;;;;;;5088753;28;20047;-67
2022/04/06 07:54:55;;;;;;;17.20;5.95;;;8.00;99.90;;;;;;5092252;28;20435;-66
2022/04/06 07:57:22;;;;;;;20.60;4.95;;;7.90;99.90;;;;;;5085354;28;20036;-68
2022/04/06 07:59:52;;;;;;;10.88;5.47;;;8.10;99.90;;;;;;5089475;28;20048;-67
2022/04/06 08:02:17;;;;;;;13.13;5.88;;;8.30;99.90;;;;;;5083834;28;20049;-68
2022/04/06 08:04:43;;;;;;;18.10;5.10;;;8.00;99.90;;;;;;5093371;28;20047;-67
2022/04/06 08:07:09;;;;;;;17.27;5.43;;;8.00;99.90;;;;;;5092933;28;20452;-68
2022/04/06 08:09:35;;;;;;;12.23;4.43;;;8.10;99.90;;;;;;5082035;28;20503;-67
2022/04/06 08:12:01;;;;;;;18.02;6.00;;;8.10;99.90;;;;;;5083518;28;20041;-68
2022/04/06 08:14:27;;;;;;;21.60;6.15;;;8.10;99.90;;;;;;5079584;28;20076;-69
2022/04/06 08:16:55;;;;;;;17.10;5.53;;;8.40;99.90;;;;;;5091432;28;20044;-68
2022/04/06 08:19:27;;;;;;;30.10;6.97;;;8.10;99.90;;;;;;5088527;28;20119;-67
2022/04/06 08:21:56;;;;;;;18.52;5.10;;;8.10;99.90;;;;;;5092981;28;20044;-68
2022/04/06 08:24:22;;;;;;;17.73;5.88;;;8.10;99.90;;;;;;5075494;28;20478;-69
2022/04/06 08:26:48;;;;;;;21.33;5.85;;;8.20;99.90;;;;;;5075131;28;20046;-68
2022/04/06 08:29:13;;;;;;;15.77;5.50;;;8.10;99.90;;;;;;5080898;28;20123;-72
2022/04/06 08:31:39;;;;;;;18.70;5.97;;;8.10;99.90;;;;;;5087766;28;20128;-69
2022/04/06 08:34:06;;;;;;;19.08;5.57;;;8.10;99.90;;;;;;5093512;28;20051;-68
2022/04/06 08:36:32;;;;;;;22.33;6.05;;;8.10;99.90;;;;;;5091285;28;20064;-67
2022/04/06 08:38:59;;;;;;;16.50;5.55;;;8.10;99.90;;;;;;5087431;28;20218;-67
2022/04/06 08:41:26;;;;;;;21.20;5.82;;;8.10;99.90;;;;;;5093314;28;20044;-67
2022/04/06 08:43:52;;;;;;;22.50;5.97;;;8.10;99.90;;;;;;5084269;28;20056;-67
2022/04/06 08:46:20;;;;;;;21.13;5.78;;;8.10;99.90;;;;;;5092758;28;20040;-67
2022/04/06 08:48:57;;;;;;;25.20;5.97;;;8.10;99.90;;;;;;5092643;28;20762;-67
2022/04/06 08:51:23;;;;;;;21.40;5.72;;;8.50;99.90;;;;;;5093377;28;20054;-67
2022/04/06 08:53:49;;;;;;;19.30;5.57;;;8.20;99.90;;;;;;5091757;28;20055;-68
2022/04/06 08:56:15;;;;;;;24.45;6.30;;;8.20;99.90;;;;;;5091185;28;20401;-68
2022/04/06 08:58:41;;;;;;;18.00;4.90;;;8.30;99.90;;;;;;5090063;28;20043;-68
2022/04/06 09:01:08;;;;;;;19.67;5.40;;;8.40;99.90;;;;;;5086769;28;20043;-68
2022/04/06 09:03:37;;;;;;;20.92;5.15;;;8.40;99.90;;;;;;5080707;28;20409;-67
2022/04/06 09:06:08;;;;;;;22.75;6.35;;;8.50;99.90;;;;;;5075893;28;20056;-69
2022/04/06 09:08:36;;;;;;;28.58;5.95;;;8.50;99.90;;;;;;5079017;28;20036;-66
2022/04/06 09:11:10;;;;;;;24.02;6.00;;;8.50;99.90;;;;;;5091139;28;20147;-69
2022/04/06 09:13:37;;;;;;;18.45;5.10;;;8.50;99.90;;;;;;5089589;28;20048;-68
2022/04/06 09:16:04;;;;;;;19.35;5.30;;;8.60;99.90;;;;;;5083337;28;20051;-68
2022/04/06 09:18:45;;;;;;;21.42;5.18;;;8.60;99.90;;;;;;5071116;28;20036;-68
2022/04/06 09:21:13;;;;;;;16.30;5.57;;;8.60;99.90;;;;;;5081119;28;20044;-68
2022/04/06 09:23:39;;;;;;;24.20;5.13;;;8.70;99.90;;;;;;5078840;28;20083;-68
2022/04/06 09:26:06;;;;;;;22.98;4.85;;;9.50;99.90;;;;;;5087769;28;20205;-69
2022/04/06 09:28:37;;;;;;;21.33;4.95;;;8.80;99.90;;;;;;5074072;28;20055;-69
2022/04/06 09:31:02;;;;;;;17.88;4.35;;;8.90;99.90;;;;;;5081277;28;20055;-68
2022/04/06 09:33:29;;;;;;;15.98;5.28;;;8.90;99.90;;;;;;5087101;28;20048;-69
2022/04/06 09:35:57;;;;;;;18.70;4.93;;;9.00;99.90;;;;;;5072210;28;20052;-67
2022/04/06 09:38:26;;;;;;;19.13;5.15;;;9.20;99.90;;;;;;5084763;28;20044;-69
2022/04/06 09:41:05;;;;;;;15.20;4.85;;;9.20;99.90;;;;;;5092257;28;20440;-67
2022/04/06 09:43:33;;;;;;;13.15;4.68;;;9.30;99.90;;;;;;5086371;28;20462;-66
2022/04/06 09:49:18;;;;;;;21.55;5.80;;;9.40;99.90;;;;;;5089396;28;20040;-69
2022/04/06 09:51:52;;;;;;;17.42;4.68;;;9.50;99.90;;;;;;5072574;28;20086;-69
2022/04/06 09:54:19;;;;;;;18.05;5.72;;;9.80;99.90;;;;;;5073533;28;20409;-68
2022/04/06 09:56:45;;;;;;;18.40;5.18;;;9.50;99.90;;;;;;5090912;28;20409;-67
2022/04/06 09:59:12;;;;;;;16.90;5.00;;;10.80;99.90;;;;;;5091717;28;20040;-69
2022/04/06 10:01:48;;;;;;;13.73;4.22;;;9.50;99.90;;;;;;5087879;28;20036;-69
2022/04/06 10:04:18;;;;;;;20.92;5.10;;;9.40;99.90;;;;;;5084231;28;20131;-69
2022/04/06 10:06:44;;;;;;;17.10;5.63;;;9.40;99.90;;;;;;5084718;28;20092;-68
2022/04/06 10:09:15;;;;;;;23.75;5.13;;;9.50;99.90;;;;;;5085395;28;20033;-68
2022/04/06 10:11:41;;;;;;;18.88;4.80;;;9.50;99.90;;;;;;5081435;28;20043;-67
2022/04/06 10:14:10;;;;;;;26.80;5.72;;;9.50;99.90;;;;;;5091409;28;20088;-69
2022/04/06 10:16:38;;;;;;;21.10;5.07;;;9.50;99.90;;;;;;5087367;28;20050;-68
2022/04/06 10:19:06;;;;;;;17.48;5.10;;;9.50;99.90;;;;;;5078241;28;20050;-69
2022/04/06 10:21:56;;;;;;;17.45;5.30;;;9.50;99.90;;;;;;5090197;28;20056;-67
2022/04/06 10:24:45;;;;;;;20.48;5.20;;;9.50;99.90;;;;;;5075859;28;20049;-68
2022/04/06 10:27:36;;;;;;;19.40;5.22;;;9.50;99.90;;;;;;5074351;28;20041;-69
2022/04/06 10:30:13;;;;;;;24.73;5.88;;;9.50;99.90;;;;;;5078003;28;20039;-69
2022/04/06 10:32:43;;;;;;;27.05;6.28;;;9.50;99.90;;;;;;5075460;28;20051;-69
2022/04/06 10:35:28;;;;;;;21.13;5.30;;;9.50;99.90;;;;;;5076071;28;20131;-68
2022/04/06 10:38:14;;;;;;;19.73;6.47;;;9.50;99.90;;;;;;5075317;28;20048;-67
2022/04/06 10:40:46;;;;;;;28.25;5.72;;;9.40;99.90;;;;;;5074508;28;20120;-69
2022/04/06 10:43:33;;;;;;;21.23;5.78;;;9.40;99.90;;;;;;5089323;28;20044;-68
2022/04/06 10:45:59;;;;;;;16.42;6.10;;;9.50;99.90;;;;;;5088681;28;20040;-68
2022/04/06 10:48:25;;;;;;;21.45;6.60;;;9.50;99.90;;;;;;5074982;28;20040;-68
2022/04/06 10:50:50;;;;;;;24.73;7.47;;;9.50;99.90;;;;;;5108169;28;20396;-68
2022/04/06 10:53:19;;;;;;;30.30;6.68;;;9.50;99.90;;;;;;5095117;28;20035;-68
2022/04/06 10:56:11;;;;;;;27.27;6.82;;;9.60;99.90;;;;;;5076925;28;20086;-68
2022/04/06 10:58:55;;;;;;;31.05;8.02;;;9.60;99.90;;;;;;5089608;28;20490;-67
2022/04/06 11:01:33;;;;;;;25.63;7.60;;;9.60;99.90;;;;;;5093045;28;20040;-69
2022/04/06 11:04:15;;;;;;;22.00;7.18;;;9.70;99.90;;;;;;5085664;28;20051;-68
2022/04/06 11:06:40;;;;;;;24.08;6.80;;;9.60;99.90;;;;;;5081439;28;20074;-67
2022/04/06 11:12:21;;;;;;;28.35;8.65;;;9.60;99.90;;;;;;5078860;28;20048;-68
2022/04/06 11:15:10;;;;;;;22.55;7.57;;;9.70;99.90;;;;;;5083968;28;20040;-68
2022/04/06 11:17:44;;;;;;;30.08;7.53;;;9.80;99.90;;;;;;5083729;28;20393;-68
2022/04/06 11:20:11;;;;;;;27.08;6.90;;;9.80;99.90;;;;;;5080923;28;20063;-69
2022/04/06 11:22:38;;;;;;;21.30;6.18;;;9.80;99.90;;;;;;5077893;28;20040;-68
2022/04/06 11:25:12;;;;;;;24.63;6.20;;;9.90;99.90;;;;;;5080216;28;20044;-67
2022/04/06 11:27:39;;;;;;;32.13;8.00;;;9.80;99.90;;;;;;5092663;28;20405;-68
2022/04/06 11:30:18;;;;;;;20.73;6.38;;;9.70;99.90;;;;;;5086457;28;20036;-69
2022/04/06 11:32:55;;;;;;;33.63;7.43;;;9.70;99.90;;;;;;5062353;28;20123;-68
2022/04/06 11:35:28;;;;;;;28.08;7.38;;;9.80;99.90;;;;;;5089082;28;20108;-69
2022/04/06 11:37:54;;;;;;;27.63;6.55;;;9.80;99.90;;;;;;5089868;28;20105;-68
2022/04/06 11:40:24;;;;;;;24.73;6.90;;;9.90;99.90;;;;;;5079982;28;20048;-68
2022/04/06 11:42:51;;;;;;;26.42;6.25;;;10.30;99.90;;;;;;5075270;28;20513;-68
2022/04/06 11:45:29;;;;;;;23.42;6.00;;;10.20;99.90;;;;;;5080087;28;20043;-68
2022/04/06 11:48:15;;;;;;;23.90;6.30;;;10.30;99.90;;;;;;5086281;28;20177;-68
2022/04/06 11:50:42;;;;;;;22.95;5.50;;;10.40;99.90;;;;;;5084177;28;20126;-69
2022/04/06 11:53:18;;;;;;;27.55;6.72;;;11.00;99.90;;;;;;5074170;28;20501;-68
2022/04/06 11:55:51;;;;;;;22.50;6.20;;;10.60;99.90;;;;;;5084037;28;20041;-67
2022/04/06 11:58:39;;;;;;;26.95;6.50;;;10.70;99.90;;;;;;5078295;28;20401;-68
2022/04/06 12:01:10;;;;;;;29.52;5.57;;;10.70;99.90;;;;;;5079543;28;20083;-68
2022/04/06 12:03:38;;;;;;;21.38;6.40;;;10.90;99.90;;;;;;5075973;28;20486;-68
2022/04/06 12:06:06;;;;;;;24.87;5.77;;;11.40;99.90;;;;;;5080934;28;20060;-68
2022/04/06 12:08:33;;;;;;;22.17;5.95;;;11.60;99.90;;;;;;5072526;28;20052;-67
2022/04/06 12:11:00;;;;;;;23.67;5.53;;;11.90;99.90;;;;;;5083967;28;20047;-68
2022/04/06 12:13:30;;;;;;;14.45;4.43;;;12.00;99.90;;;;;;5081462;28;20063;-68
2022/04/06 12:15:56;;;;;;;23.63;4.97;;;12.10;99.90;;;;;;5076044;28;20082;-67
2022/04/06 12:18:27;;;;;;;16.60;3.75;;;12.10;99.90;;;;;;5082216;28;20044;-67
2022/04/06 12:20:54;;;;;;;25.30;4.55;;;12.00;99.90;;;;;;5082438;28;20416;-68
2022/04/06 12:23:23;;;;;;;16.30;3.80;;;11.90;99.90;;;;;;5084468;28;20048;-67
2022/04/06 12:25:49;;;;;;;17.27;4.38;;;11.70;99.90;;;;;;5078807;28;20527;-68
2022/04/06 12:28:18;;;;;;;19.17;4.47;;;11.70;99.90;;;;;;5073855;28;20102;-67
2022/04/06 12:31:03;;;;;;;22.00;4.18;;;11.60;99.90;;;;;;5082107;28;20051;-68
2022/04/06 12:33:51;;;;;;;12.73;3.65;;;11.50;99.90;;;;;;5076173;28;20499;-67
2022/04/06 12:36:27;;;;;;;18.65;4.05;;;11.40;99.90;;;;;;5072588;28;20143;-68
2022/04/06 12:39:14;;;;;;;16.35;3.97;;;11.70;99.90;;;;;;5072890;28;20053;-68
2022/04/06 12:42:05;;;;;;;14.43;3.80;;;11.90;99.90;;;;;;5072573;28;20178;-69
2022/04/06 12:44:52;;;;;;;14.57;3.78;;;12.30;99.90;;;;;;5086122;28;20513;-68
2022/04/06 12:47:19;;;;;;;16.83;4.03;;;12.50;99.90;;;;;;5090633;28;20147;-68
2022/04/06 12:49:45;;;;;;;13.60;3.35;;;12.50;99.90;;;;;;5091541;28;20546;-69
2022/04/06 12:52:16;;;;;;;17.65;3.60;;;12.30;99.90;;;;;;5072810;28;20040;-68
2022/04/06 12:54:49;;;;;;;20.25;4.57;;;12.10;99.90;;;;;;5083309;28;20565;-68
2022/04/06 12:57:19;;;;;;;20.25;4.25;;;11.90;99.90;;;;;;5079535;28;20049;-69
2022/04/06 13:00:08;;;;;;;18.50;4.20;;;11.80;99.90;;;;;;5081890;28;20078;-69